Time;durP1;ratioP1;P1;durP2;ratioP2;P2;SDS_P1;SDS_P2;PMS_P1;PMS_P2;Temp;Humidity;BMP_temperature;BMP_pressure;BME280_temperature;BME280_humidity;BME280_pressure;Samples;Min_cycle;Max_cycle;Signal;HPM_P1;HPM_P2
2022/11/25 00:01:18;;;;;;;9.15;3.28;;;8.00;99.90;;;;;;5114519;28;20051;-65
2022/11/25 00:03:45;;;;;;;10.77;3.70;;;8.00;99.90;;;;;;5113505;28;20118;-65
2022/11/25 00:06:16;;;;;;;10.18;3.70;;;8.00;99.90;;;;;;5112293;28;20043;-65
2022/11/25 00:08:43;;;;;;;11.55;3.92;;;8.00;99.90;;;;;;5113715;28;20036;-65
2022/11/25 00:11:10;;;;;;;21.23;3.92;;;8.00;99.90;;;;;;5095866;28;20064;-65
2022/11/25 00:13:36;;;;;;;16.27;4.43;;;8.00;99.90;;;;;;5113992;28;20047;-65
2022/11/25 00:16:04;;;;;;;14.02;4.38;;;8.00;99.90;;;;;;5114753;28;20043;-65
2022/11/25 00:18:30;;;;;;;14.25;4.13;;;8.00;99.90;;;;;;5114576;28;20035;-65
2022/11/25 00:20:57;;;;;;;18.05;4.45;;;8.00;99.90;;;;;;5095233;28;20036;-65
2022/11/25 00:23:23;;;;;;;10.80;3.50;;;8.10;99.90;;;;;;5112635;28;20047;-65
2022/11/25 00:25:48;;;;;;;17.38;4.65;;;8.10;99.90;;;;;;5113809;28;20041;-65
2022/11/25 00:28:14;;;;;;;11.98;3.60;;;8.10;99.90;;;;;;5112603;28;20039;-65
2022/11/25 00:30:40;;;;;;;12.80;4.00;;;8.10;99.90;;;;;;5114498;28;20055;-65
2022/11/25 00:33:05;;;;;;;12.32;3.35;;;8.10;99.90;;;;;;5111446;28;20082;-65
2022/11/25 00:35:34;;;;;;;11.73;3.97;;;8.00;99.90;;;;;;5112708;28;20032;-65
2022/11/25 00:37:59;;;;;;;12.52;2.97;;;8.10;99.90;;;;;;5112879;28;20115;-65
2022/11/25 00:40:25;;;;;;;15.93;3.95;;;8.10;99.90;;;;;;5111387;28;20122;-65
2022/11/25 00:45:35;;;;;;;16.80;4.22;;;8.10;99.90;;;;;;5114134;28;20044;-65
2022/11/25 00:48:01;;;;;;;11.75;3.38;;;8.10;99.90;;;;;;5111645;28;20071;-65
2022/11/25 00:50:26;;;;;;;16.60;4.93;;;8.00;99.90;;;;;;5113177;28;20032;-65
2022/11/25 00:52:52;;;;;;;15.40;4.18;;;8.10;99.90;;;;;;5113859;28;20092;-65
2022/11/25 00:55:18;;;;;;;13.52;3.67;;;8.10;99.90;;;;;;5111227;28;20035;-65
2022/11/25 00:57:43;;;;;;;12.68;4.18;;;8.00;99.90;;;;;;5112631;28;20039;-65
2022/11/25 01:00:10;;;;;;;9.93;3.15;;;8.00;99.90;;;;;;5095175;28;20089;-65
2022/11/25 01:02:36;;;;;;;24.65;4.55;;;8.00;99.90;;;;;;5111781;28;20039;-65
2022/11/25 01:05:01;;;;;;;21.00;5.75;;;8.10;99.90;;;;;;5112540;28;20039;-65
2022/11/25 01:07:27;;;;;;;10.75;3.03;;;8.00;99.90;;;;;;5111689;28;20043;-65
2022/11/25 01:09:53;;;;;;;11.95;3.83;;;8.10;99.90;;;;;;5113047;28;20027;-65
2022/11/25 01:12:18;;;;;;;23.65;4.05;;;8.10;99.90;;;;;;5113122;28;20541;-65
2022/11/25 01:14:44;;;;;;;11.88;3.65;;;8.10;99.90;;;;;;5112468;28;20437;-65
2022/11/25 01:17:10;;;;;;;11.13;3.88;;;8.10;99.90;;;;;;5111031;28;20584;-65
2022/11/25 01:19:38;;;;;;;15.35;4.05;;;8.10;99.90;;;;;;5112023;28;20066;-65
2022/11/25 01:22:06;;;;;;;19.00;3.72;;;8.10;99.90;;;;;;5093705;28;20050;-65
2022/11/25 01:24:31;;;;;;;12.93;3.60;;;8.10;99.90;;;;;;5111929;28;20040;-65
2022/11/25 01:26:57;;;;;;;12.48;3.72;;;8.10;99.90;;;;;;5112262;28;20036;-65
2022/11/25 01:29:23;;;;;;;9.50;3.47;;;8.20;99.90;;;;;;5110754;28;20077;-65
2022/11/25 01:31:49;;;;;;;15.70;4.65;;;8.20;99.90;;;;;;5111896;28;20041;-65
2022/11/25 01:34:17;;;;;;;15.05;4.13;;;8.20;99.90;;;;;;5111369;28;20039;-65
2022/11/25 01:36:43;;;;;;;14.15;5.10;;;8.20;99.90;;;;;;5111250;28;20043;-64
2022/11/25 01:39:17;;;;;;;10.80;4.10;;;8.20;99.90;;;;;;5111206;28;20499;-65
2022/11/25 01:41:44;;;;;;;13.90;4.10;;;8.20;99.90;;;;;;5113128;28;20456;-65
2022/11/25 01:44:16;;;;;;;13.40;3.80;;;8.20;99.90;;;;;;5110608;28;20104;-65
2022/11/25 01:47:05;;;;;;;14.48;3.70;;;8.20;99.90;;;;;;5110751;28;20040;-65
2022/11/25 01:49:50;;;;;;;10.98;4.15;;;8.20;99.90;;;;;;5104578;28;20134;-65
2022/11/25 01:52:39;;;;;;;10.57;3.47;;;8.10;99.90;;;;;;5110514;28;20039;-64
2022/11/25 01:55:10;;;;;;;15.00;4.05;;;8.10;99.90;;;;;;5112288;28;20161;-65
2022/11/25 01:57:43;;;;;;;12.40;4.03;;;8.10;99.90;;;;;;5111161;28;20048;-64
2022/11/25 02:00:09;;;;;;;12.10;3.85;;;8.10;99.90;;;;;;5111330;28;20043;-64
2022/11/25 02:02:35;;;;;;;11.18;4.13;;;8.10;99.90;;;;;;5112702;28;20063;-64
2022/11/25 02:05:08;;;;;;;13.80;3.83;;;8.10;99.90;;;;;;5110863;28;20032;-64
2022/11/25 02:07:38;;;;;;;21.33;4.38;;;8.10;99.90;;;;;;5112907;28;20415;-63
2022/11/25 02:10:13;;;;;;;15.82;4.55;;;8.10;99.90;;;;;;5110915;28;20046;-63
2022/11/25 02:12:42;;;;;;;10.05;3.65;;;8.10;99.90;;;;;;5110630;28;20039;-63
2022/11/25 02:15:08;;;;;;;12.63;4.20;;;8.10;99.90;;;;;;5112135;28;20044;-63
2022/11/25 02:17:34;;;;;;;21.40;5.57;;;8.10;99.90;;;;;;5111608;28;20048;-63
2022/11/25 02:20:08;;;;;;;13.23;4.05;;;8.10;99.90;;;;;;5111797;28;20051;-63
2022/11/25 02:22:54;;;;;;;12.97;4.23;;;8.10;99.90;;;;;;5112579;28;20086;-63
2022/11/25 02:25:25;;;;;;;15.82;4.35;;;8.10;99.90;;;;;;5111160;28;20040;-63
2022/11/25 02:27:56;;;;;;;14.30;4.60;;;8.00;99.90;;;;;;5111643;28;20108;-63
2022/11/25 02:30:22;;;;;;;14.98;4.10;;;8.00;99.90;;;;;;5110686;28;20123;-64
2022/11/25 02:32:47;;;;;;;13.88;4.00;;;8.10;99.90;;;;;;5110451;28;20161;-64
2022/11/25 02:35:34;;;;;;;16.95;4.40;;;8.00;99.90;;;;;;5111978;28;20039;-63
2022/11/25 02:38:15;;;;;;;20.40;5.47;;;8.00;99.90;;;;;;5112574;28;20046;-64
2022/11/25 02:41:02;;;;;;;15.35;4.50;;;8.00;99.90;;;;;;5110429;28;20488;-63
2022/11/25 02:43:28;;;;;;;14.05;4.07;;;8.00;99.90;;;;;;5110876;28;20400;-63
2022/11/25 02:46:00;;;;;;;24.80;5.40;;;8.00;99.90;;;;;;5110866;28;20578;-63
2022/11/25 02:48:28;;;;;;;16.60;4.85;;;8.00;99.90;;;;;;5109523;28;20485;-63
2022/11/25 02:50:54;;;;;;;14.27;4.18;;;8.00;99.90;;;;;;5094069;28;20086;-63
2022/11/25 02:53:20;;;;;;;17.40;5.45;;;8.00;99.90;;;;;;5110194;28;20081;-63
2022/11/25 02:55:46;;;;;;;14.07;3.75;;;8.00;99.90;;;;;;5111232;28;20057;-63
2022/11/25 02:58:12;;;;;;;12.98;4.00;;;8.00;99.90;;;;;;5113870;28;20075;-63
2022/11/25 03:00:37;;;;;;;12.23;4.53;;;8.00;99.90;;;;;;5113757;28;20040;-63
2022/11/25 03:03:03;;;;;;;12.13;4.53;;;7.90;99.90;;;;;;5097886;28;20395;-63
2022/11/25 03:05:28;;;;;;;19.05;5.20;;;8.00;99.90;;;;;;5114733;28;20180;-63
2022/11/25 03:07:54;;;;;;;13.77;5.18;;;8.00;99.90;;;;;;5113944;28;20036;-63
2022/11/25 03:10:20;;;;;;;16.45;4.78;;;8.00;99.90;;;;;;5114323;28;20075;-63
2022/11/25 03:12:46;;;;;;;12.98;5.40;;;8.00;99.90;;;;;;5114851;28;20047;-63
2022/11/25 03:15:12;;;;;;;12.85;4.63;;;8.00;99.90;;;;;;5114428;28;20584;-63
2022/11/25 03:17:37;;;;;;;17.67;4.90;;;8.00;99.90;;;;;;5114640;28;20098;-63
2022/11/25 03:20:05;;;;;;;12.48;4.38;;;8.10;99.90;;;;;;5114386;28;20047;-63
2022/11/25 03:22:31;;;;;;;17.95;5.38;;;8.10;99.90;;;;;;5114631;28;20051;-63
2022/11/25 03:24:57;;;;;;;15.18;5.22;;;8.10;99.90;;;;;;5114368;28;20385;-63
2022/11/25 03:27:22;;;;;;;12.38;5.03;;;8.10;99.90;;;;;;5113898;28;20039;-63
2022/11/25 03:29:48;;;;;;;15.13;4.82;;;8.10;99.90;;;;;;5113326;28;20381;-63
2022/11/25 03:32:14;;;;;;;11.00;4.63;;;8.10;99.90;;;;;;5113614;28;20039;-63
2022/11/25 03:34:39;;;;;;;15.32;4.47;;;8.10;99.90;;;;;;5097216;28;20124;-62
2022/11/25 03:37:05;;;;;;;12.90;4.97;;;8.10;99.90;;;;;;5095868;28;20031;-63
2022/11/25 03:39:31;;;;;;;12.30;4.65;;;8.10;99.90;;;;;;5114298;28;20504;-62
2022/11/25 03:41:56;;;;;;;14.18;5.18;;;8.10;99.90;;;;;;5115519;28;20484;-63
2022/11/25 03:44:22;;;;;;;14.07;4.65;;;8.10;99.90;;;;;;5112785;28;20092;-63
2022/11/25 03:46:47;;;;;;;12.13;4.80;;;8.10;99.90;;;;;;5114094;28;20047;-63
2022/11/25 03:49:13;;;;;;;20.02;5.25;;;8.10;99.90;;;;;;5113207;28;20079;-63
2022/11/25 03:51:39;;;;;;;12.85;4.40;;;8.00;99.90;;;;;;5114148;28;20057;-63
2022/11/25 03:54:05;;;;;;;10.93;4.93;;;8.00;99.90;;;;;;5113579;28;20429;-63
2022/11/25 03:56:30;;;;;;;18.73;5.20;;;8.10;99.90;;;;;;5113615;28;20047;-63
2022/11/25 03:58:56;;;;;;;15.23;5.95;;;8.00;99.90;;;;;;5114146;28;20044;-63
2022/11/25 04:01:22;;;;;;;12.38;3.97;;;8.10;99.90;;;;;;5096093;28;20468;-63
2022/11/25 04:03:47;;;;;;;16.20;5.10;;;8.10;99.90;;;;;;5112900;28;20118;-63
2022/11/25 04:06:14;;;;;;;15.00;4.43;;;8.10;99.90;;;;;;5114073;28;20039;-64
2022/11/25 04:08:40;;;;;;;17.73;4.85;;;8.10;99.90;;;;;;5112691;28;20124;-64
2022/11/25 04:11:06;;;;;;;12.48;4.15;;;8.10;99.90;;;;;;5112506;28;20080;-63
2022/11/25 04:13:34;;;;;;;16.85;4.45;;;8.10;99.90;;;;;;5114707;28;20043;-64
2022/11/25 04:15:59;;;;;;;12.80;4.45;;;8.10;99.90;;;;;;5113543;28;20118;-64
2022/11/25 04:18:25;;;;;;;15.27;5.05;;;8.10;99.90;;;;;;5112201;28;20524;-64
2022/11/25 04:20:51;;;;;;;12.88;4.45;;;8.10;99.90;;;;;;5114457;28;20561;-64
2022/11/25 04:23:17;;;;;;;12.88;4.97;;;8.10;99.90;;;;;;5112945;28;20506;-64
2022/11/25 04:25:42;;;;;;;11.77;4.20;;;8.10;99.90;;;;;;5112379;28;20472;-64
2022/11/25 04:28:08;;;;;;;13.30;5.30;;;8.10;99.90;;;;;;5112549;28;20036;-64
2022/11/25 04:30:34;;;;;;;21.58;6.32;;;8.10;99.90;;;;;;5113100;28;20399;-64
2022/11/25 04:33:00;;;;;;;13.27;4.70;;;8.10;99.90;;;;;;5112345;28;20031;-64
2022/11/25 04:35:26;;;;;;;11.13;5.13;;;8.20;99.90;;;;;;5112511;28;20042;-64
2022/11/25 04:37:51;;;;;;;15.40;5.88;;;8.20;99.90;;;;;;5112989;28;20043;-64
2022/11/25 04:40:17;;;;;;;14.82;6.05;;;8.10;99.90;;;;;;5112990;28;20036;-64
2022/11/25 04:42:43;;;;;;;14.60;5.57;;;8.10;99.90;;;;;;5095498;28;20031;-64
2022/11/25 04:45:11;;;;;;;17.20;6.95;;;8.20;99.90;;;;;;5113521;28;20040;-64
2022/11/25 04:47:38;;;;;;;20.60;6.70;;;8.20;99.90;;;;;;5111483;28;20032;-65
2022/11/25 04:50:13;;;;;;;19.40;5.82;;;8.20;99.90;;;;;;5111902;28;20043;-65
2022/11/25 04:52:39;;;;;;;13.43;6.60;;;8.20;99.90;;;;;;5112615;28;20035;-64
2022/11/25 04:55:06;;;;;;;17.88;5.68;;;8.20;99.90;;;;;;5111328;28;20396;-65
2022/11/25 04:57:31;;;;;;;16.23;5.68;;;8.20;99.90;;;;;;5112546;28;20040;-63
2022/11/25 04:59:57;;;;;;;16.40;5.82;;;8.20;99.90;;;;;;5111729;28;20038;-64
2022/11/25 05:02:25;;;;;;;17.48;6.82;;;8.20;99.90;;;;;;5111887;28;20126;-64
2022/11/25 05:04:52;;;;;;;23.48;6.82;;;8.10;99.90;;;;;;5112535;28;20031;-64
2022/11/25 05:07:20;;;;;;;13.00;6.22;;;8.10;99.90;;;;;;5112139;28;20039;-65
2022/11/25 05:09:46;;;;;;;16.85;6.13;;;8.10;99.90;;;;;;5113484;28;20065;-64
2022/11/25 05:12:15;;;;;;;16.55;6.25;;;8.10;99.90;;;;;;5111486;28;20043;-64
2022/11/25 05:14:40;;;;;;;15.48;6.13;;;8.10;99.90;;;;;;5112485;28;20032;-65
2022/11/25 05:17:06;;;;;;;14.68;6.75;;;8.10;99.90;;;;;;5111407;28;20480;-65
2022/11/25 05:19:34;;;;;;;17.65;6.28;;;8.10;99.90;;;;;;5113478;28;20044;-65
2022/11/25 05:22:00;;;;;;;19.42;6.72;;;8.10;99.90;;;;;;5094119;28;20032;-65
2022/11/25 05:24:26;;;;;;;15.07;5.60;;;8.10;99.90;;;;;;5094339;28;20038;-64
2022/11/25 05:26:52;;;;;;;18.70;6.85;;;8.10;99.90;;;;;;5111965;28;20040;-64
2022/11/25 05:29:18;;;;;;;17.27;6.38;;;8.10;99.90;;;;;;5111921;28;20042;-65
2022/11/25 05:31:43;;;;;;;17.05;6.22;;;8.10;99.90;;;;;;5111883;28;20451;-65
2022/11/25 05:34:09;;;;;;;18.08;7.97;;;8.10;99.90;;;;;;5112840;28;20040;-64
2022/11/25 05:36:35;;;;;;;17.50;6.35;;;8.10;99.90;;;;;;5110967;28;20114;-64
2022/11/25 05:39:01;;;;;;;20.13;7.32;;;8.10;99.90;;;;;;5113111;28;20088;-64
2022/11/25 05:41:27;;;;;;;14.45;6.63;;;8.00;99.90;;;;;;5111136;28;20488;-65
2022/11/25 05:43:53;;;;;;;20.77;6.63;;;8.00;99.90;;;;;;5111292;28;20046;-64
2022/11/25 05:46:19;;;;;;;17.67;7.38;;;8.00;99.90;;;;;;5111183;28;20395;-65
2022/11/25 05:48:45;;;;;;;19.75;6.68;;;8.10;99.90;;;;;;5112939;28;20108;-65
2022/11/25 05:51:10;;;;;;;15.45;6.57;;;8.10;99.90;;;;;;5110587;28;20501;-65
2022/11/25 05:53:36;;;;;;;14.20;6.10;;;8.10;99.90;;;;;;5094695;28;20468;-64
2022/11/25 05:56:05;;;;;;;20.17;6.80;;;8.10;99.90;;;;;;5094639;28;20173;-65
2022/11/25 05:58:32;;;;;;;22.77;6.65;;;8.10;99.90;;;;;;5110703;28;20047;-65
2022/11/25 06:00:57;;;;;;;20.83;6.72;;;8.10;99.90;;;;;;5111368;28;20054;-65
2022/11/25 06:03:26;;;;;;;15.48;6.38;;;8.10;99.90;;;;;;5109993;28;20036;-65
2022/11/25 06:05:54;;;;;;;19.10;6.63;;;8.20;99.90;;;;;;5111487;28;20031;-64
2022/11/25 06:08:19;;;;;;;20.83;6.28;;;8.20;99.90;;;;;;5110804;28;20089;-64
2022/11/25 06:10:45;;;;;;;15.73;5.80;;;8.20;99.90;;;;;;5110767;28;20039;-65
2022/11/25 06:13:11;;;;;;;17.45;5.88;;;8.20;99.90;;;;;;5112199;28;20399;-64
2022/11/25 06:15:41;;;;;;;20.67;6.60;;;8.20;99.90;;;;;;5112672;28;20122;-65
2022/11/25 06:18:07;;;;;;;19.67;6.28;;;8.20;99.90;;;;;;5093058;28;20078;-64
2022/11/25 06:20:33;;;;;;;16.45;6.05;;;8.30;99.90;;;;;;5111240;28;20040;-65
2022/11/25 06:22:58;;;;;;;22.25;6.65;;;8.20;99.90;;;;;;5112543;28;20032;-65
2022/11/25 06:25:25;;;;;;;16.08;6.10;;;8.30;99.90;;;;;;5109962;28;20047;-65
2022/11/25 06:27:51;;;;;;;15.98;6.32;;;8.30;99.90;;;;;;5111217;28;20118;-65
2022/11/25 06:30:16;;;;;;;13.82;5.53;;;8.30;99.90;;;;;;5111013;28;20114;-65
2022/11/25 06:32:42;;;;;;;14.05;5.88;;;8.30;99.90;;;;;;5114616;28;20039;-64
2022/11/25 06:35:08;;;;;;;19.48;6.85;;;8.40;99.90;;;;;;5114902;28;20035;-64
2022/11/25 06:37:34;;;;;;;13.35;6.70;;;8.40;99.90;;;;;;5115390;28;20047;-64
2022/11/25 06:39:59;;;;;;;18.33;6.82;;;8.40;99.90;;;;;;5115742;28;20113;-65
2022/11/25 06:42:25;;;;;;;20.95;6.70;;;8.40;99.90;;;;;;5097633;28;20547;-65
2022/11/25 06:44:52;;;;;;;16.35;6.00;;;8.40;99.90;;;;;;5116393;28;20502;-65
2022/11/25 06:47:18;;;;;;;15.93;6.55;;;8.40;99.90;;;;;;5114002;28;20468;-65
2022/11/25 06:49:43;;;;;;;18.38;6.88;;;8.30;99.90;;;;;;5097787;28;20052;-65
2022/11/25 06:52:09;;;;;;;18.17;6.90;;;8.30;99.90;;;;;;5097360;28;20046;-64
2022/11/25 06:54:39;;;;;;;15.93;6.20;;;8.30;99.90;;;;;;5114111;28;20141;-65
2022/11/25 06:57:09;;;;;;;13.23;6.45;;;8.30;99.90;;;;;;5114302;28;20047;-65
2022/11/25 06:59:35;;;;;;;24.50;8.40;;;8.20;99.90;;;;;;5115292;28;20503;-65
2022/11/25 07:02:01;;;;;;;18.23;7.43;;;8.20;99.90;;;;;;5116262;28;20039;-65
2022/11/25 07:04:27;;;;;;;16.10;6.20;;;8.20;99.90;;;;;;5114617;28;20074;-65
2022/11/25 07:06:53;;;;;;;22.58;7.20;;;8.10;99.90;;;;;;5113795;28;20461;-64
2022/11/25 07:09:18;;;;;;;15.20;6.70;;;8.10;99.90;;;;;;5114096;28;20074;-65
2022/11/25 07:11:45;;;;;;;16.58;6.45;;;8.00;99.90;;;;;;5115829;28;20035;-65
2022/11/25 07:14:13;;;;;;;15.02;7.75;;;8.00;99.90;;;;;;5114402;28;20078;-65
2022/11/25 07:16:40;;;;;;;16.70;7.13;;;8.00;99.90;;;;;;5097518;28;20043;-65
2022/11/25 07:19:06;;;;;;;14.48;7.45;;;7.90;99.90;;;;;;5115342;28;20040;-65
2022/11/25 07:21:33;;;;;;;16.60;6.80;;;7.90;99.90;;;;;;5113649;28;20061;-64
2022/11/25 07:24:00;;;;;;;14.90;5.63;;;7.90;99.90;;;;;;5115688;28;20115;-65
2022/11/25 07:26:29;;;;;;;19.25;8.10;;;7.90;99.90;;;;;;5096790;28;20035;-65
2022/11/25 07:28:58;;;;;;;15.57;8.27;;;7.80;99.90;;;;;;5113874;28;20067;-65
2022/11/25 07:31:26;;;;;;;19.52;7.07;;;7.80;99.90;;;;;;5113995;28;20150;-65
2022/11/25 07:33:54;;;;;;;15.55;6.72;;;7.80;99.90;;;;;;5114534;28;20066;-65
2022/11/25 07:36:20;;;;;;;19.67;7.30;;;7.80;99.90;;;;;;5114003;28;20114;-64
2022/11/25 07:38:46;;;;;;;18.48;6.53;;;7.70;99.90;;;;;;5114409;28;20042;-64
2022/11/25 07:41:23;;;;;;;16.48;6.72;;;7.70;99.90;;;;;;5113757;28;20531;-64
2022/11/25 07:43:52;;;;;;;15.88;6.60;;;7.80;99.90;;;;;;5095348;28;20421;-64
2022/11/25 07:46:19;;;;;;;15.45;6.93;;;7.70;99.90;;;;;;5096515;28;20040;-64
2022/11/25 07:48:45;;;;;;;15.30;6.90;;;7.70;99.90;;;;;;5113414;28;20051;-65
2022/11/25 07:51:22;;;;;;;15.40;6.90;;;7.70;99.90;;;;;;5113053;28;20055;-64
2022/11/25 07:53:49;;;;;;;16.10;7.60;;;7.70;99.90;;;;;;5113090;28;20035;-65
2022/11/25 07:56:15;;;;;;;12.95;5.63;;;7.70;99.90;;;;;;5112516;28;20051;-65
2022/11/25 07:58:41;;;;;;;16.80;6.65;;;7.60;99.90;;;;;;5114976;28;20480;-64
2022/11/25 08:01:10;;;;;;;18.13;6.65;;;7.70;99.90;;;;;;5113174;28;20039;-65
2022/11/25 08:03:37;;;;;;;18.13;7.18;;;7.70;99.90;;;;;;5113875;28;20740;-64
2022/11/25 08:06:08;;;;;;;21.55;8.52;;;7.60;99.90;;;;;;5114791;28;20035;-64
2022/11/25 08:08:35;;;;;;;16.25;7.90;;;7.70;99.90;;;;;;5114969;28;20031;-64
2022/11/25 08:11:09;;;;;;;20.05;7.95;;;7.60;99.90;;;;;;5108366;28;20057;-64
2022/11/25 08:13:35;;;;;;;18.10;6.60;;;7.60;99.90;;;;;;5092425;28;20054;-64
2022/11/25 08:16:01;;;;;;;15.20;6.90;;;7.60;99.90;;;;;;5111840;28;20067;-64
2022/11/25 08:18:27;;;;;;;17.38;6.22;;;7.60;99.90;;;;;;5092423;28;20082;-64
2022/11/25 08:20:59;;;;;;;14.52;5.88;;;7.50;99.90;;;;;;5110898;28;20042;-64
2022/11/25 08:23:25;;;;;;;18.92;6.43;;;7.60;99.90;;;;;;5110814;28;20475;-64
2022/11/25 08:25:50;;;;;;;14.23;6.25;;;7.60;99.90;;;;;;5110205;28;20056;-64
2022/11/25 08:28:16;;;;;;;16.00;6.78;;;7.60;99.90;;;;;;5111573;28;20560;-64
2022/11/25 08:30:42;;;;;;;16.42;7.50;;;7.60;99.90;;;;;;5110879;28;20111;-64
2022/11/25 08:33:07;;;;;;;13.27;6.95;;;7.60;99.90;;;;;;5109293;28;20047;-64
2022/11/25 08:35:36;;;;;;;17.27;6.63;;;7.70;99.90;;;;;;5111775;28;20039;-64
2022/11/25 08:38:04;;;;;;;15.68;5.93;;;7.70;99.90;;;;;;5110918;28;20039;-64
2022/11/25 08:40:31;;;;;;;14.98;6.10;;;7.60;99.90;;;;;;5094031;28;20061;-65
2022/11/25 08:42:57;;;;;;;11.40;6.13;;;7.70;99.90;;;;;;5111976;28;20407;-64
2022/11/25 08:45:22;;;;;;;11.80;6.00;;;7.70;99.90;;;;;;5110824;28;20031;-64
2022/11/25 08:47:48;;;;;;;12.57;5.90;;;7.70;99.90;;;;;;5109991;28;20051;-64
2022/11/25 08:50:14;;;;;;;15.43;6.43;;;7.70;99.90;;;;;;5092370;28;20093;-64
2022/11/25 08:52:40;;;;;;;13.07;5.45;;;7.80;99.90;;;;;;5109432;28;20039;-64
2022/11/25 08:55:07;;;;;;;11.70;5.80;;;7.80;99.90;;;;;;5110068;28;20050;-64
2022/11/25 08:57:33;;;;;;;9.93;5.22;;;7.80;99.90;;;;;;5110061;28;20053;-64
2022/11/25 08:59:59;;;;;;;12.85;5.10;;;7.80;99.90;;;;;;5109801;28;20048;-64
2022/11/25 09:02:25;;;;;;;10.07;5.50;;;7.80;99.90;;;;;;5093669;28;20036;-64
2022/11/25 09:04:51;;;;;;;15.00;5.82;;;7.90;99.90;;;;;;5112841;28;20046;-64
2022/11/25 09:07:17;;;;;;;12.70;4.65;;;7.90;99.90;;;;;;5111164;28;20024;-64
2022/11/25 09:09:42;;;;;;;10.32;5.30;;;8.00;99.90;;;;;;5112009;28;20035;-64
2022/11/25 09:12:09;;;;;;;12.27;5.65;;;8.00;99.90;;;;;;5108778;28;20044;-64
2022/11/25 09:14:35;;;;;;;12.60;4.75;;;8.10;99.90;;;;;;5092702;28;20511;-64
2022/11/25 09:17:01;;;;;;;12.93;5.32;;;8.10;99.90;;;;;;5085693;28;20047;-65
2022/11/25 09:19:27;;;;;;;15.98;5.18;;;8.10;99.90;;;;;;5092856;28;20508;-64
2022/11/25 09:21:53;;;;;;;10.80;4.65;;;8.20;99.90;;;;;;5106389;28;20054;-64
2022/11/25 09:24:19;;;;;;;11.55;4.50;;;8.20;99.90;;;;;;5112206;28;20392;-64
2022/11/25 09:26:45;;;;;;;11.73;4.88;;;8.20;99.90;;;;;;5088465;28;20043;-64
2022/11/25 09:29:12;;;;;;;13.23;5.20;;;8.30;99.90;;;;;;5109741;28;20036;-64
2022/11/25 09:31:38;;;;;;;12.82;4.38;;;8.30;99.90;;;;;;5111956;28;20127;-64
2022/11/25 09:34:04;;;;;;;10.35;4.78;;;8.40;99.90;;;;;;5112196;28;20035;-64
2022/11/25 09:36:30;;;;;;;11.10;4.40;;;8.40;99.90;;;;;;5110311;28;20031;-64
2022/11/25 09:38:55;;;;;;;9.88;4.30;;;8.50;99.90;;;;;;5112265;28;20036;-64
2022/11/25 09:48:14;;;;;;;12.63;4.82;;;8.60;99.90;;;;;;5111251;28;20052;-64
2022/11/25 09:50:52;;;;;;;13.43;4.80;;;8.60;99.90;;;;;;5093805;28;20032;-63
2022/11/25 09:53:29;;;;;;;10.50;4.55;;;8.70;99.90;;;;;;5093807;28;20039;-62
2022/11/25 09:56:02;;;;;;;13.63;4.20;;;8.70;99.90;;;;;;5112139;28;20039;-63
2022/11/25 09:58:50;;;;;;;10.45;4.28;;;8.80;99.90;;;;;;5093995;28;20114;-63
2022/11/25 10:01:21;;;;;;;11.23;3.95;;;8.80;99.90;;;;;;5110185;28;20083;-64
2022/11/25 10:04:10;;;;;;;12.02;4.60;;;8.80;99.90;;;;;;5110304;28;20039;-65
2022/11/25 10:06:44;;;;;;;10.38;4.40;;;8.80;99.90;;;;;;5109120;28;20119;-64
2022/11/25 10:09:13;;;;;;;15.48;4.35;;;8.80;99.90;;;;;;5110642;28;20039;-65
2022/11/25 10:11:50;;;;;;;14.55;4.53;;;8.80;99.90;;;;;;5093637;28;20058;-64
2022/11/25 10:14:34;;;;;;;10.40;4.07;;;8.70;99.90;;;;;;5111912;28;20051;-64
2022/11/25 10:17:02;;;;;;;10.88;4.05;;;8.70;99.90;;;;;;5111715;28;20123;-64
2022/11/25 10:19:51;;;;;;;10.90;4.57;;;8.70;99.90;;;;;;5110767;28;20092;-64
2022/11/25 10:22:40;;;;;;;11.57;3.88;;;8.80;99.90;;;;;;5097115;28;20051;-64
2022/11/25 10:25:13;;;;;;;9.32;3.80;;;8.90;99.90;;;;;;5109953;28;20039;-64
2022/11/25 10:27:57;;;;;;;17.45;5.15;;;9.00;99.90;;;;;;5111574;28;20459;-65
2022/11/25 10:30:26;;;;;;;10.85;4.15;;;9.00;99.90;;;;;;5093666;28;20040;-64
2022/11/25 10:33:10;;;;;;;9.88;3.63;;;8.90;99.90;;;;;;5111608;28;20043;-64
2022/11/25 10:35:44;;;;;;;13.13;4.13;;;9.00;99.90;;;;;;5111226;28;20047;-64
2022/11/25 10:38:17;;;;;;;15.10;4.37;;;9.00;99.90;;;;;;5109728;28;20095;-64
2022/11/25 10:40:47;;;;;;;10.18;3.83;;;9.10;99.90;;;;;;5112404;28;20761;-64
2022/11/25 10:43:13;;;;;;;10.07;4.05;;;9.10;99.90;;;;;;5110853;28;20062;-64
2022/11/25 10:46:08;;;;;;;11.05;4.68;;;9.20;99.90;;;;;;5110538;28;20434;-64
2022/11/25 10:48:51;;;;;;;12.43;3.60;;;9.30;99.90;;;;;;5110834;28;20070;-64
2022/11/25 10:51:27;;;;;;;11.40;4.57;;;9.30;99.90;;;;;;5110437;28;20047;-64
2022/11/25 10:54:10;;;;;;;10.20;4.40;;;9.30;99.90;;;;;;5110344;28;20043;-64
2022/11/25 10:56:55;;;;;;;14.25;4.53;;;9.30;99.90;;;;;;5110849;28;20043;-65
2022/11/25 10:59:24;;;;;;;13.48;4.65;;;9.30;99.90;;;;;;5109821;28;20468;-64
2022/11/25 11:02:10;;;;;;;14.48;4.35;;;9.30;99.90;;;;;;5111201;28;20477;-64
2022/11/25 11:05:03;;;;;;;10.82;3.50;;;9.30;99.90;;;;;;5112203;28;20511;-65
2022/11/25 11:07:34;;;;;;;12.38;4.07;;;9.30;99.90;;;;;;5110111;28;20040;-64
2022/11/25 11:10:24;;;;;;;10.57;3.72;;;9.30;99.90;;;;;;5112349;28;20084;-64
2022/11/25 11:12:56;;;;;;;12.18;4.45;;;9.30;99.90;;;;;;5093251;28;20048;-64
2022/11/25 11:15:54;;;;;;;10.32;4.05;;;9.30;99.90;;;;;;5093362;28;20047;-64
2022/11/25 11:18:36;;;;;;;8.95;3.42;;;9.30;99.90;;;;;;5057512;28;20393;-64
2022/11/25 11:21:05;;;;;;;16.58;5.18;;;9.40;99.90;;;;;;5114856;28;20492;-64
2022/11/25 11:23:49;;;;;;;9.85;4.30;;;9.50;99.90;;;;;;5114792;28;20059;-65
2022/11/25 11:26:29;;;;;;;16.35;4.85;;;9.50;99.90;;;;;;5096914;28;20039;-65
2022/11/25 11:29:14;;;;;;;11.90;3.88;;;9.60;99.90;;;;;;5113739;28;20035;-64
2022/11/25 11:32:00;;;;;;;13.63;3.83;;;9.70;99.90;;;;;;5114321;28;20051;-65
2022/11/25 11:34:49;;;;;;;12.30;3.65;;;9.80;99.90;;;;;;5095906;28;20069;-65
2022/11/25 11:37:43;;;;;;;9.68;3.40;;;9.80;99.90;;;;;;5113680;28;20039;-64
2022/11/25 11:40:45;;;;;;;10.00;3.10;;;9.90;99.90;;;;;;5111965;28;20104;-64
2022/11/25 11:43:55;;;;;;;12.80;3.60;;;10.00;99.90;;;;;;5112660;28;20058;-64
2022/11/25 11:47:02;;;;;;;12.10;3.75;;;10.00;99.90;;;;;;5058055;28;20441;-64
2022/11/25 11:49:46;;;;;;;13.10;3.85;;;10.10;99.90;;;;;;5112499;28;20047;-64
2022/11/25 11:52:39;;;;;;;16.60;3.92;;;10.10;99.90;;;;;;5113370;28;20040;-64
2022/11/25 11:55:35;;;;;;;13.15;3.38;;;10.20;99.90;;;;;;5113757;28;20165;-65
2022/11/25 11:58:20;;;;;;;9.73;3.55;;;10.20;99.90;;;;;;5104070;28;20055;-64
2022/11/25 12:00:59;;;;;;;16.20;4.15;;;10.30;99.90;;;;;;5115027;28;20074;-65
2022/11/25 12:03:28;;;;;;;11.95;3.60;;;10.30;99.90;;;;;;5113565;28;20505;-65
2022/11/25 12:05:56;;;;;;;10.35;3.22;;;10.50;99.90;;;;;;5113629;28;20058;-64
2022/11/25 12:08:51;;;;;;;14.52;3.85;;;10.60;99.90;;;;;;5113190;28;20400;-65
2022/11/25 12:11:27;;;;;;;10.30;3.53;;;10.70;99.90;;;;;;5112454;28;20480;-65
2022/11/25 12:14:10;;;;;;;13.90;3.38;;;10.80;99.90;;;;;;5113505;28;20040;-65
2022/11/25 12:16:57;;;;;;;11.52;3.45;;;10.80;99.90;;;;;;5112850;28;20039;-65
2022/11/25 12:19:35;;;;;;;13.35;3.63;;;10.80;99.90;;;;;;5112612;28;20087;-65
2022/11/25 12:22:16;;;;;;;13.82;3.35;;;10.80;99.90;;;;;;5113360;28;20052;-65
2022/11/25 12:24:57;;;;;;;15.55;4.18;;;10.70;99.90;;;;;;5112453;28;20084;-65
2022/11/25 12:27:43;;;;;;;12.27;3.78;;;10.60;99.90;;;;;;5112787;28;20078;-65
2022/11/25 12:30:18;;;;;;;15.05;3.95;;;10.60;99.90;;;;;;5112580;28;20085;-65
2022/11/25 12:33:08;;;;;;;14.35;4.65;;;10.60;99.90;;;;;;5112847;28;20069;-65
2022/11/25 12:35:56;;;;;;;11.80;3.47;;;10.60;99.90;;;;;;5113140;28;20097;-64
2022/11/25 12:38:58;;;;;;;23.08;4.32;;;10.60;99.90;;;;;;5112953;28;20535;-64
2022/11/25 12:41:40;;;;;;;15.73;4.50;;;10.70;99.90;;;;;;5113684;28;20044;-65
2022/11/25 12:44:15;;;;;;;13.75;2.80;;;10.80;99.90;;;;;;5113857;28;20036;-65
2022/11/25 12:46:44;;;;;;;17.13;3.30;;;10.90;99.90;;;;;;5112955;28;20089;-64
2022/11/25 12:49:41;;;;;;;9.65;2.72;;;10.90;99.90;;;;;;5111824;28;20135;-65
2022/11/25 12:52:20;;;;;;;17.20;4.13;;;10.90;99.90;;;;;;5094479;28;20043;-65
2022/11/25 12:54:46;;;;;;;13.18;3.63;;;10.90;99.90;;;;;;5095685;28;20047;-65
2022/11/25 12:57:23;;;;;;;12.13;4.47;;;10.80;99.90;;;;;;5113501;28;20040;-65
2022/11/25 13:00:30;;;;;;;14.57;4.30;;;10.80;99.90;;;;;;5111757;28;20036;-65
2022/11/25 13:03:17;;;;;;;12.45;3.67;;;10.80;99.90;;;;;;5112752;28;20035;-63
2022/11/25 13:06:01;;;;;;;10.60;3.42;;;10.70;99.90;;;;;;5113005;28;20035;-62
2022/11/25 13:09:16;;;;;;;12.23;4.47;;;10.70;99.90;;;;;;5110992;28;20039;-61
2022/11/25 13:11:57;;;;;;;12.93;4.90;;;10.70;99.90;;;;;;5083124;28;20130;-61
2022/11/25 13:14:25;;;;;;;14.88;4.00;;;10.60;99.90;;;;;;5093819;28;20484;-61